Time;durP1;ratioP1;P1;durP2;ratioP2;P2;SDS_P1;SDS_P2;PMS_P1;PMS_P2;Temp;Humidity;BMP_temperature;BMP_pressure;BME280_temperature;BME280_humidity;BME280_pressure;Samples;Min_cycle;Max_cycle;Signal;HPM_P1;HPM_P2
2021/11/19 00:00:54;;;;;;;21.63;19.73;;;2.60;99.90;;;;;;5109852;27;20438;-80
2021/11/19 00:03:21;;;;;;;22.57;20.60;;;2.50;99.90;;;;;;5127264;27;20525;-80
2021/11/19 00:05:49;;;;;;;22.30;20.13;;;2.50;99.90;;;;;;5109517;27;20491;-80
2021/11/19 00:08:19;;;;;;;22.17;20.10;;;2.50;99.90;;;;;;5127499;27;20447;-80
2021/11/19 00:10:46;;;;;;;21.97;19.77;;;2.50;99.90;;;;;;5132603;27;20957;-80
2021/11/19 00:13:12;;;;;;;21.40;19.60;;;2.40;99.90;;;;;;5110265;27;20563;-80
2021/11/19 00:15:39;;;;;;;22.20;20.33;;;2.40;99.90;;;;;;5110880;27;20499;-80
2021/11/19 00:18:08;;;;;;;22.80;20.73;;;2.40;99.90;;;;;;5130714;27;20505;-80
2021/11/19 00:20:35;;;;;;;22.43;20.53;;;2.40;99.90;;;;;;5134102;27;20424;-79
2021/11/19 00:23:03;;;;;;;22.50;20.60;;;2.40;99.90;;;;;;5133950;27;20527;-80
2021/11/19 00:25:31;;;;;;;22.20;20.40;;;2.30;99.90;;;;;;5103798;28;20455;-80
2021/11/19 00:27:58;;;;;;;21.70;19.67;;;2.30;99.90;;;;;;5125106;27;20457;-80
2021/11/19 00:30:27;;;;;;;22.73;20.63;;;2.30;99.90;;;;;;5098880;27;20489;-80
2021/11/19 00:32:53;;;;;;;21.87;20.13;;;2.30;99.90;;;;;;5105233;28;20454;-80
2021/11/19 00:35:22;;;;;;;22.27;20.37;;;2.30;99.90;;;;;;5105378;28;20475;-79
2021/11/19 00:37:53;;;;;;;21.47;19.57;;;2.30;99.90;;;;;;5096675;28;20507;-80
2021/11/19 00:40:23;;;;;;;20.73;19.03;;;2.30;99.90;;;;;;5109360;27;20451;-80
2021/11/19 00:42:50;;;;;;;21.20;19.23;;;2.40;99.90;;;;;;5106410;28;20470;-80
2021/11/19 00:45:20;;;;;;;20.03;18.33;;;2.50;99.90;;;;;;5099630;27;20504;-80
2021/11/19 00:47:47;;;;;;;20.23;18.33;;;2.60;99.90;;;;;;5108335;27;20443;-80
2021/11/19 00:50:14;;;;;;;21.17;19.23;;;2.60;99.90;;;;;;5099337;27;21043;-80
2021/11/19 00:52:43;;;;;;;20.77;19.20;;;2.70;99.90;;;;;;5105836;28;20832;-80
2021/11/19 00:55:10;;;;;;;20.93;19.13;;;2.70;99.90;;;;;;5111354;27;20451;-80
2021/11/19 00:57:38;;;;;;;21.73;19.73;;;2.60;99.90;;;;;;5107538;28;20462;-80
2021/11/19 01:00:10;;;;;;;22.57;20.33;;;2.60;99.90;;;;;;5097413;27;20440;-80
2021/11/19 01:02:37;;;;;;;21.50;19.50;;;2.60;99.90;;;;;;5108371;27;20462;-80
2021/11/19 01:05:05;;;;;;;21.70;19.73;;;2.60;99.90;;;;;;5100750;28;20453;-81
2021/11/19 01:07:32;;;;;;;23.13;20.97;;;2.60;99.90;;;;;;5106834;27;20477;-80
2021/11/19 01:10:09;;;;;;;21.63;19.67;;;2.60;99.90;;;;;;5101501;28;20494;-80
2021/11/19 01:12:37;;;;;;;20.80;18.97;;;2.50;99.90;;;;;;5098908;28;20478;-80
2021/11/19 01:15:08;;;;;;;21.33;19.53;;;2.50;99.90;;;;;;5105701;28;20447;-80
2021/11/19 01:17:48;;;;;;;22.07;19.73;;;2.50;99.90;;;;;;5108918;27;20984;-80
2021/11/19 01:20:25;;;;;;;22.03;19.93;;;2.50;99.90;;;;;;5118308;27;20439;-80
2021/11/19 01:22:55;;;;;;;21.30;19.57;;;2.50;99.90;;;;;;5116921;27;20458;-80
2021/11/19 01:25:27;;;;;;;23.00;20.67;;;2.50;99.90;;;;;;5117193;27;20942;-79
2021/11/19 01:27:54;;;;;;;22.83;20.83;;;2.50;99.90;;;;;;5117467;27;20459;-80
2021/11/19 01:30:29;;;;;;;22.13;20.20;;;2.50;99.90;;;;;;5135745;27;20466;-79
2021/11/19 01:32:56;;;;;;;21.53;19.73;;;2.50;99.90;;;;;;5112776;27;20226;-80
2021/11/19 01:35:37;;;;;;;21.77;19.73;;;2.60;99.90;;;;;;5111564;27;20460;-80
2021/11/19 01:38:40;;;;;;;21.57;19.67;;;2.50;99.90;;;;;;5093391;27;20445;-79
2021/11/19 01:41:33;;;;;;;21.93;20.03;;;2.50;99.90;;;;;;5090756;27;20451;-80
2021/11/19 01:44:01;;;;;;;21.80;20.00;;;2.50;99.90;;;;;;5109303;27;20875;-80
2021/11/19 01:46:31;;;;;;;22.20;20.10;;;2.50;99.90;;;;;;5090420;27;20453;-79
2021/11/19 01:48:59;;;;;;;22.47;20.57;;;2.50;99.90;;;;;;5103528;28;20852;-79
2021/11/19 01:51:30;;;;;;;21.17;19.20;;;2.50;99.90;;;;;;5106184;27;20466;-80
2021/11/19 01:54:02;;;;;;;21.97;20.17;;;2.50;99.90;;;;;;5093499;28;20484;-80
2021/11/19 01:56:34;;;;;;;21.20;19.30;;;2.50;99.90;;;;;;5093549;28;20452;-79
2021/11/19 01:59:08;;;;;;;21.13;19.37;;;2.50;99.90;;;;;;5096214;28;20469;-80
2021/11/19 02:01:39;;;;;;;22.80;20.20;;;2.50;99.90;;;;;;5108754;27;20502;-80
2021/11/19 02:04:12;;;;;;;21.63;19.87;;;2.40;99.90;;;;;;5100096;28;20439;-79
2021/11/19 02:06:43;;;;;;;21.43;19.43;;;2.40;99.90;;;;;;5101495;28;20976;-80
2021/11/19 02:09:28;;;;;;;22.10;19.90;;;2.40;99.90;;;;;;5105689;27;20471;-80
2021/11/19 02:12:10;;;;;;;21.07;19.23;;;2.40;99.90;;;;;;5101494;28;20974;-80
2021/11/19 02:14:48;;;;;;;21.47;19.53;;;2.40;99.90;;;;;;5101955;28;20840;-80
2021/11/19 02:17:18;;;;;;;22.20;20.30;;;2.30;99.90;;;;;;5097261;28;20445;-79
2021/11/19 02:19:49;;;;;;;21.27;19.40;;;2.30;99.90;;;;;;5092987;28;20438;-80
2021/11/19 02:22:21;;;;;;;21.10;19.40;;;2.30;99.90;;;;;;5124810;27;20472;-80
2021/11/19 02:24:52;;;;;;;21.40;19.50;;;2.20;99.90;;;;;;5105541;28;20436;-80
2021/11/19 02:27:32;;;;;;;21.00;19.10;;;2.20;99.90;;;;;;5106779;28;20985;-78
2021/11/19 02:30:02;;;;;;;22.43;20.53;;;2.20;99.90;;;;;;5131609;28;20460;-80
2021/11/19 02:32:35;;;;;;;21.87;19.97;;;2.10;99.90;;;;;;5101904;28;20476;-80
2021/11/19 02:35:04;;;;;;;22.07;20.17;;;2.10;99.90;;;;;;5096964;28;20453;-80
2021/11/19 02:37:37;;;;;;;21.10;19.40;;;2.00;99.90;;;;;;5091277;28;20505;-80
2021/11/19 02:40:08;;;;;;;21.07;19.27;;;2.00;99.90;;;;;;5099497;28;20499;-79
2021/11/19 02:42:41;;;;;;;21.13;19.33;;;2.00;99.90;;;;;;5096279;28;20826;-79
2021/11/19 02:45:14;;;;;;;21.13;19.33;;;1.90;99.90;;;;;;5095090;28;20456;-80
2021/11/19 02:47:41;;;;;;;21.97;20.17;;;2.00;99.90;;;;;;5096106;28;20528;-80
2021/11/19 02:50:14;;;;;;;20.80;19.10;;;2.00;99.90;;;;;;5099864;28;20464;-80
2021/11/19 02:52:46;;;;;;;20.73;18.87;;;2.00;99.90;;;;;;5087528;28;20907;-80
2021/11/19 02:55:17;;;;;;;21.37;19.67;;;2.10;99.90;;;;;;5100331;28;20459;-79
2021/11/19 02:57:47;;;;;;;20.80;19.13;;;2.10;99.90;;;;;;5093672;28;20451;-79
2021/11/19 03:00:18;;;;;;;20.70;19.10;;;2.10;99.90;;;;;;5103112;27;20451;-78
2021/11/19 03:02:45;;;;;;;20.27;18.70;;;2.20;99.90;;;;;;5102044;28;20940;-79
2021/11/19 03:05:17;;;;;;;21.00;19.20;;;2.20;99.90;;;;;;5106832;28;20438;-80
2021/11/19 03:07:44;;;;;;;20.90;19.23;;;2.20;99.90;;;;;;5099853;28;20500;-80
2021/11/19 03:10:14;;;;;;;20.90;19.20;;;2.20;99.90;;;;;;5132656;27;20481;-80
2021/11/19 03:12:41;;;;;;;21.20;19.33;;;2.20;99.90;;;;;;5100793;28;20478;-80
2021/11/19 03:15:13;;;;;;;20.47;18.77;;;2.10;99.90;;;;;;5101107;27;20507;-80
2021/11/19 03:17:40;;;;;;;19.67;18.17;;;2.10;99.90;;;;;;5106611;28;20792;-80
2021/11/19 03:20:10;;;;;;;21.10;19.33;;;2.00;99.90;;;;;;5102569;28;20447;-80
2021/11/19 03:22:37;;;;;;;21.83;19.93;;;1.90;99.90;;;;;;5106564;28;20457;-80
2021/11/19 03:25:05;;;;;;;21.77;19.90;;;1.90;99.90;;;;;;5100109;28;20454;-80
2021/11/19 03:27:32;;;;;;;22.30;20.40;;;1.90;99.90;;;;;;5100008;28;20452;-79
2021/11/19 03:30:12;;;;;;;21.27;19.57;;;1.90;99.90;;;;;;5100119;27;20466;-79
2021/11/19 03:32:38;;;;;;;21.67;19.97;;;1.90;99.90;;;;;;5102853;28;20879;-80
2021/11/19 03:35:07;;;;;;;21.57;19.87;;;1.90;99.90;;;;;;5100247;27;20540;-79
2021/11/19 03:37:34;;;;;;;21.47;19.57;;;1.90;99.90;;;;;;5109266;27;20438;-80
2021/11/19 03:40:01;;;;;;;21.83;19.83;;;1.90;99.90;;;;;;5099499;28;20449;-80
2021/11/19 03:42:30;;;;;;;22.10;20.17;;;1.80;99.90;;;;;;5118322;27;20461;-79
2021/11/19 03:45:21;;;;;;;21.30;19.40;;;1.80;99.90;;;;;;5125951;27;20828;-78
2021/11/19 03:47:53;;;;;;;21.07;19.27;;;1.70;99.90;;;;;;5095152;28;20443;-80
2021/11/19 03:50:24;;;;;;;20.80;19.10;;;1.70;99.90;;;;;;5100042;27;20488;-79
2021/11/19 03:52:52;;;;;;;21.00;19.20;;;1.60;99.90;;;;;;5100332;28;20472;-79
2021/11/19 03:55:22;;;;;;;21.27;19.57;;;1.60;99.90;;;;;;5098570;28;20940;-79
2021/11/19 03:57:50;;;;;;;21.13;19.33;;;1.60;99.90;;;;;;5085214;28;20534;-79
2021/11/19 04:00:22;;;;;;;21.03;19.30;;;1.60;99.90;;;;;;5090352;28;20815;-79
2021/11/19 04:02:51;;;;;;;21.13;19.17;;;1.60;99.90;;;;;;5101595;28;20466;-79
2021/11/19 04:05:19;;;;;;;22.50;20.57;;;1.70;99.90;;;;;;5119396;27;20447;-79
2021/11/19 04:07:46;;;;;;;21.60;19.80;;;1.70;99.90;;;;;;5091490;28;20444;-80
2021/11/19 04:10:15;;;;;;;22.50;20.50;;;1.70;99.90;;;;;;5124543;27;20501;-80
2021/11/19 04:12:43;;;;;;;21.90;20.10;;;1.80;99.90;;;;;;5093576;28;20466;-79
2021/11/19 04:15:18;;;;;;;22.00;20.10;;;1.80;99.90;;;;;;5092627;28;21027;-79
2021/11/19 04:17:46;;;;;;;20.03;18.53;;;1.80;99.90;;;;;;5093661;28;20502;-80
2021/11/19 04:20:15;;;;;;;21.93;20.13;;;1.80;99.90;;;;;;5109429;27;20428;-80
2021/11/19 04:25:59;;;;;;;22.90;20.87;;;1.70;99.90;;;;;;5125150;27;20873;-80
2021/11/19 04:28:28;;;;;;;22.67;20.70;;;1.70;99.90;;;;;;5108516;27;20463;-80
2021/11/19 04:31:15;;;;;;;22.10;20.30;;;1.60;99.90;;;;;;5130668;27;20477;-78
2021/11/19 04:33:43;;;;;;;21.80;20.00;;;1.60;99.90;;;;;;5129557;27;20449;-78
2021/11/19 04:36:11;;;;;;;22.37;20.47;;;1.60;99.90;;;;;;5101730;27;20455;-78
2021/11/19 04:38:39;;;;;;;22.10;20.30;;;1.60;99.90;;;;;;5128135;27;20828;-78
2021/11/19 04:41:07;;;;;;;21.13;19.33;;;1.50;99.90;;;;;;5104760;27;20479;-79
2021/11/19 04:43:36;;;;;;;22.13;20.23;;;1.50;99.90;;;;;;5121102;27;20456;-80
2021/11/19 04:46:05;;;;;;;21.87;20.17;;;1.50;99.90;;;;;;5097182;28;20451;-80
2021/11/19 04:48:34;;;;;;;22.27;20.30;;;1.40;99.90;;;;;;5096846;27;20452;-81
2021/11/19 04:51:05;;;;;;;21.73;19.93;;;1.40;99.90;;;;;;5102178;28;20556;-80
2021/11/19 04:53:32;;;;;;;22.07;20.27;;;1.30;99.90;;;;;;5099664;27;20556;-80
2021/11/19 04:56:00;;;;;;;22.43;20.50;;;1.30;99.90;;;;;;5108751;28;20451;-79
2021/11/19 04:58:27;;;;;;;22.03;20.23;;;1.20;99.90;;;;;;5106041;27;20454;-81
2021/11/19 05:00:57;;;;;;;22.30;20.37;;;1.20;99.90;;;;;;5106306;28;20512;-80
2021/11/19 05:03:30;;;;;;;22.27;20.17;;;1.10;99.90;;;;;;5099457;27;20463;-80
2021/11/19 05:05:59;;;;;;;22.33;20.47;;;1.10;99.90;;;;;;5099031;28;20510;-80
2021/11/19 05:08:27;;;;;;;22.17;20.27;;;1.10;99.90;;;;;;5092637;27;20440;-81
2021/11/19 05:10:57;;;;;;;20.80;19.10;;;1.20;99.90;;;;;;5109148;28;20528;-79
2021/11/19 05:13:26;;;;;;;21.73;20.03;;;1.20;99.90;;;;;;5107371;27;20507;-78
2021/11/19 05:16:09;;;;;;;21.13;19.33;;;1.10;99.90;;;;;;5099511;28;20443;-79
2021/11/19 05:18:38;;;;;;;22.47;20.67;;;1.10;99.90;;;;;;5100061;28;20937;-81
2021/11/19 05:21:06;;;;;;;23.53;21.33;;;1.10;99.90;;;;;;5092914;28;20495;-79
2021/11/19 05:23:35;;;;;;;22.00;20.20;;;1.10;99.90;;;;;;5114971;28;20461;-80
2021/11/19 05:26:03;;;;;;;22.70;20.80;;;1.20;99.90;;;;;;5096391;28;20700;-79
2021/11/19 05:28:30;;;;;;;22.50;20.60;;;1.20;99.90;;;;;;5122502;27;20466;-80
2021/11/19 05:31:02;;;;;;;22.40;20.67;;;1.20;99.90;;;;;;5125356;27;20728;-79
2021/11/19 05:33:31;;;;;;;23.20;20.83;;;1.10;99.90;;;;;;5088385;28;20462;-78
2021/11/19 05:35:59;;;;;;;23.50;21.50;;;1.10;99.90;;;;;;5090946;28;20463;-79
2021/11/19 05:38:28;;;;;;;22.53;20.63;;;1.00;99.90;;;;;;5094958;28;20450;-78
2021/11/19 05:40:58;;;;;;;22.37;20.20;;;1.00;99.90;;;;;;5089803;28;20445;-79
2021/11/19 05:43:27;;;;;;;22.73;20.77;;;1.00;99.90;;;;;;5095228;27;20468;-79
2021/11/19 05:46:19;;;;;;;22.63;20.80;;;0.90;99.90;;;;;;5127666;27;20805;-78
2021/11/19 05:48:55;;;;;;;23.33;21.33;;;0.90;99.90;;;;;;5100551;28;20583;-78
2021/11/19 05:51:24;;;;;;;23.30;21.23;;;0.90;99.90;;;;;;5103660;28;20483;-78
2021/11/19 05:53:52;;;;;;;22.30;20.40;;;0.90;99.90;;;;;;5094774;28;20452;-78
2021/11/19 05:56:24;;;;;;;22.50;20.60;;;1.00;99.90;;;;;;5094453;28;20451;-78
2021/11/19 05:58:51;;;;;;;23.33;21.13;;;1.00;99.90;;;;;;5094614;28;20447;-78
2021/11/19 06:01:41;;;;;;;24.00;21.97;;;1.00;99.90;;;;;;5079727;27;20542;-78
2021/11/19 06:04:11;;;;;;;23.80;21.50;;;1.00;99.90;;;;;;5106188;27;20910;-82
2021/11/19 06:06:47;;;;;;;24.00;22.00;;;0.90;99.90;;;;;;5106370;27;21065;-80
2021/11/19 06:09:27;;;;;;;23.63;21.57;;;0.90;99.90;;;;;;5103895;27;20444;-82
2021/11/19 06:11:59;;;;;;;22.87;20.87;;;1.00;99.90;;;;;;5101133;28;20573;-82
2021/11/19 06:14:29;;;;;;;23.07;21.00;;;1.00;99.90;;;;;;5107626;28;20440;-82
2021/11/19 06:16:59;;;;;;;23.57;21.57;;;1.00;99.90;;;;;;5097205;28;20437;-81
2021/11/19 06:19:30;;;;;;;22.90;21.00;;;1.00;99.90;;;;;;5125726;27;20426;-82
2021/11/19 06:22:01;;;;;;;22.90;20.90;;;1.00;99.90;;;;;;5106904;28;20467;-82
2021/11/19 06:24:36;;;;;;;22.43;20.50;;;0.90;99.90;;;;;;5103627;28;20736;-83
2021/11/19 06:27:06;;;;;;;23.90;21.77;;;1.00;99.90;;;;;;5096507;28;20888;-82
2021/11/19 06:29:35;;;;;;;23.53;21.53;;;1.00;99.90;;;;;;5099871;28;20450;-81
2021/11/19 06:32:02;;;;;;;23.73;21.43;;;1.00;99.90;;;;;;5100565;28;20482;-82
2021/11/19 06:34:29;;;;;;;23.13;21.13;;;1.00;99.90;;;;;;5088968;28;20511;-82
2021/11/19 06:36:57;;;;;;;24.27;22.07;;;1.00;99.90;;;;;;5097579;28;20477;-83
2021/11/19 06:39:26;;;;;;;23.73;21.63;;;1.00;99.90;;;;;;5090750;28;20488;-82
2021/11/19 06:41:57;;;;;;;23.30;21.40;;;1.00;99.90;;;;;;5106071;28;20502;-82
2021/11/19 06:44:45;;;;;;;22.07;20.30;;;1.10;99.90;;;;;;5087188;28;20444;-82
2021/11/19 06:47:19;;;;;;;22.43;20.63;;;1.10;99.90;;;;;;5100989;28;20451;-82
2021/11/19 06:50:15;;;;;;;22.87;20.60;;;1.20;99.90;;;;;;5092850;28;20489;-83
2021/11/19 06:53:08;;;;;;;22.53;20.47;;;1.30;99.90;;;;;;5084543;28;20505;-82
2021/11/19 06:56:07;;;;;;;22.03;20.03;;;1.30;99.90;;;;;;5123777;28;20468;-83
2021/11/19 06:58:54;;;;;;;22.73;20.63;;;1.30;99.90;;;;;;5114197;28;20890;-78
2021/11/19 07:01:22;;;;;;;22.70;20.80;;;1.30;99.90;;;;;;5095562;28;20450;-79
2021/11/19 07:03:49;;;;;;;22.20;20.20;;;1.30;99.90;;;;;;5103046;28;20436;-81
2021/11/19 07:06:17;;;;;;;23.63;21.63;;;1.30;99.90;;;;;;5106561;28;20460;-82
2021/11/19 07:08:44;;;;;;;24.10;21.80;;;1.30;99.90;;;;;;5094534;28;20463;-80
2021/11/19 07:11:14;;;;;;;24.63;22.53;;;1.20;99.90;;;;;;5094229;28;20477;-80
2021/11/19 07:13:42;;;;;;;23.53;21.57;;;1.30;99.90;;;;;;5095923;28;20920;-81
2021/11/19 07:16:09;;;;;;;22.70;20.80;;;1.20;99.90;;;;;;5095095;28;20444;-81
2021/11/19 07:18:37;;;;;;;22.67;20.67;;;1.20;99.90;;;;;;5105272;28;20439;-80
2021/11/19 07:21:04;;;;;;;23.20;21.10;;;1.20;99.90;;;;;;5103620;28;20431;-82
2021/11/19 07:23:32;;;;;;;21.80;20.03;;;1.30;99.90;;;;;;5106292;28;20464;-80
2021/11/19 07:25:59;;;;;;;21.73;20.03;;;1.30;99.90;;;;;;5092879;28;20505;-80
2021/11/19 07:28:27;;;;;;;22.27;20.37;;;1.40;99.90;;;;;;5096744;28;20489;-81
2021/11/19 07:31:15;;;;;;;21.57;19.70;;;1.50;99.90;;;;;;5131717;28;20991;-80
2021/11/19 07:34:02;;;;;;;21.73;19.93;;;1.60;99.90;;;;;;5131293;28;20511;-81
2021/11/19 07:36:54;;;;;;;22.27;20.47;;;1.70;99.90;;;;;;5107540;27;20948;-80
2021/11/19 07:39:36;;;;;;;21.90;20.17;;;1.80;99.90;;;;;;5100922;28;20504;-80
2021/11/19 07:42:25;;;;;;;21.83;20.13;;;1.70;99.90;;;;;;5104792;27;20456;-81
2021/11/19 07:45:11;;;;;;;21.53;19.77;;;1.80;99.90;;;;;;5130008;27;20807;-80
2021/11/19 07:47:47;;;;;;;21.17;19.53;;;1.90;99.90;;;;;;5096771;28;20547;-80
2021/11/19 07:50:18;;;;;;;22.30;20.30;;;2.00;99.90;;;;;;5101379;28;20433;-80
2021/11/19 07:52:45;;;;;;;23.13;21.00;;;2.00;99.90;;;;;;5103397;28;20482;-81
2021/11/19 07:55:13;;;;;;;22.37;20.47;;;2.20;99.90;;;;;;5100390;28;20451;-80
2021/11/19 07:57:41;;;;;;;22.70;20.90;;;2.40;99.90;;;;;;5100240;28;20448;-81
2021/11/19 08:00:15;;;;;;;22.67;20.63;;;2.50;99.90;;;;;;5130542;27;20430;-80
2021/11/19 08:02:45;;;;;;;22.53;20.53;;;2.70;99.90;;;;;;5138676;27;20451;-80
2021/11/19 08:05:15;;;;;;;22.27;20.47;;;2.90;99.90;;;;;;5105588;28;20494;-81
2021/11/19 08:08:00;;;;;;;22.57;20.67;;;3.10;99.90;;;;;;5104701;28;20492;-81
2021/11/19 08:10:33;;;;;;;22.93;20.83;;;3.20;99.90;;;;;;5102951;27;20459;-81
2021/11/19 08:13:00;;;;;;;21.93;20.13;;;3.50;99.90;;;;;;5108377;28;20225;-81
2021/11/19 08:15:33;;;;;;;21.70;19.93;;;3.80;99.90;;;;;;5087459;27;20197;-81
2021/11/19 08:18:04;;;;;;;22.37;20.47;;;4.10;99.90;;;;;;5099729;28;20293;-80
2021/11/19 08:20:43;;;;;;;15.13;13.73;;;4.30;99.90;;;;;;5105890;28;20197;-81
2021/11/19 08:23:12;;;;;;;14.53;10.40;;;4.30;99.90;;;;;;5100572;27;20221;-81
2021/11/19 08:25:40;;;;;;;12.40;10.27;;;4.50;99.90;;;;;;5131708;27;20222;-81
2021/11/19 08:28:08;;;;;;;12.57;11.23;;;4.60;99.90;;;;;;5107875;27;20570;-81
2021/11/19 08:30:38;;;;;;;14.47;12.37;;;4.60;99.90;;;;;;5109743;27;20197;-80
2021/11/19 08:33:07;;;;;;;20.10;18.43;;;4.80;99.90;;;;;;5105224;28;21082;-83
2021/11/19 08:35:35;;;;;;;20.77;18.97;;;5.00;99.90;;;;;;5129289;27;20228;-82
2021/11/19 08:38:05;;;;;;;21.33;19.63;;;5.10;99.90;;;;;;5109947;27;20200;-81
2021/11/19 08:40:32;;;;;;;20.10;18.33;;;5.20;99.90;;;;;;5124962;27;20219;-81
2021/11/19 08:42:59;;;;;;;20.87;19.03;;;5.40;99.90;;;;;;5120660;27;20244;-81
2021/11/19 08:45:26;;;;;;;22.83;21.07;;;5.50;99.90;;;;;;5116867;27;20275;-81
2021/11/19 08:47:55;;;;;;;21.70;20.10;;;5.50;99.90;;;;;;5110608;28;20622;-80
2021/11/19 08:50:26;;;;;;;21.80;20.00;;;5.50;99.90;;;;;;5108738;27;20224;-80
2021/11/19 08:52:53;;;;;;;21.40;19.70;;;5.50;99.90;;;;;;5133006;27;20220;-79
2021/11/19 08:55:21;;;;;;;24.07;21.93;;;5.50;99.90;;;;;;5126072;27;20197;-81
2021/11/19 08:57:48;;;;;;;20.27;18.60;;;5.60;99.90;;;;;;5130852;27;20205;-81
2021/11/19 09:00:18;;;;;;;15.67;14.37;;;5.70;99.90;;;;;;5132604;27;20194;-82
2021/11/19 09:02:45;;;;;;;13.23;9.33;;;5.80;99.90;;;;;;5132577;27;20605;-81
2021/11/19 09:05:12;;;;;;;11.07;9.07;;;5.90;99.90;;;;;;5131546;27;20193;-81
2021/11/19 09:07:39;;;;;;;13.47;9.43;;;5.90;99.90;;;;;;5110773;27;20554;-81
2021/11/19 09:10:14;;;;;;;20.50;19.03;;;6.00;99.90;;;;;;5134641;27;20207;-80
2021/11/19 09:12:42;;;;;;;22.53;20.63;;;6.00;99.90;;;;;;5130495;27;20270;-81
2021/11/19 09:15:11;;;;;;;19.93;18.33;;;6.00;99.90;;;;;;5115944;27;20228;-81
2021/11/19 09:17:54;;;;;;;19.47;17.77;;;6.00;99.90;;;;;;5136877;27;20197;-81
2021/11/19 09:20:29;;;;;;;18.60;16.97;;;5.90;99.90;;;;;;5109037;27;20209;-81
2021/11/19 09:23:06;;;;;;;19.83;18.10;;;5.80;99.90;;;;;;5099610;28;20278;-81
2021/11/19 09:25:34;;;;;;;18.77;17.17;;;5.70;99.90;;;;;;5120932;27;20201;-80
2021/11/19 09:28:03;;;;;;;18.60;17.10;;;5.70;99.90;;;;;;5124825;27;20206;-81
2021/11/19 09:30:37;;;;;;;18.60;17.07;;;5.80;99.90;;;;;;5086700;28;20194;-81
2021/11/19 09:33:06;;;;;;;18.27;16.87;;;5.90;99.90;;;;;;5101128;28;20611;-81
2021/11/19 09:35:34;;;;;;;18.40;16.80;;;6.00;99.90;;;;;;5130368;27;20573;-82
2021/11/19 09:38:04;;;;;;;18.53;17.13;;;6.00;99.90;;;;;;5097774;28;20265;-80
2021/11/19 09:40:36;;;;;;;18.10;16.60;;;6.20;99.90;;;;;;5128067;27;20190;-80
2021/11/19 09:43:14;;;;;;;17.50;16.10;;;6.20;99.90;;;;;;5095305;28;20257;-79
2021/11/19 09:46:07;;;;;;;17.60;16.20;;;6.40;99.90;;;;;;5111520;28;20197;-78
2021/11/19 09:48:49;;;;;;;16.93;15.63;;;6.50;99.90;;;;;;5094833;27;20254;-79
2021/11/19 09:51:49;;;;;;;15.37;14.17;;;6.60;99.90;;;;;;5103383;27;20198;-80
2021/11/19 09:54:49;;;;;;;14.80;13.63;;;6.70;99.90;;;;;;5103095;27;20202;-80
2021/11/19 09:57:43;;;;;;;15.83;14.63;;;6.70;99.90;;;;;;5087233;28;20549;-80
2021/11/19 10:00:22;;;;;;;14.70;13.60;;;6.70;99.90;;;;;;5099749;28;20248;-79
2021/11/19 10:03:24;;;;;;;15.77;14.67;;;6.80;99.90;;;;;;5118877;27;20697;-80
2021/11/19 10:05:58;;;;;;;14.70;13.43;;;6.90;99.90;;;;;;5118550;27;20250;-80
2021/11/19 10:08:54;;;;;;;15.23;13.97;;;6.80;99.90;;;;;;5103126;28;20305;-79
2021/11/19 10:11:33;;;;;;;14.17;12.97;;;6.70;99.90;;;;;;5103753;28;20199;-80
2021/11/19 10:14:33;;;;;;;16.50;15.20;;;6.80;99.90;;;;;;5129504;27;20190;-80
2021/11/19 10:17:09;;;;;;;17.53;16.07;;;6.80;99.90;;;;;;5110519;28;20200;-80
2021/11/19 10:19:40;;;;;;;17.50;16.10;;;6.70;99.90;;;;;;5097286;27;20201;-80
2021/11/19 10:22:19;;;;;;;17.27;15.90;;;6.70;99.90;;;;;;5096620;28;20259;-80
2021/11/19 10:24:49;;;;;;;11.60;10.33;;;6.70;99.90;;;;;;5123355;27;20202;-79
2021/11/19 10:27:19;;;;;;;8.13;7.13;;;6.60;99.90;;;;;;5096068;28;20587;-80
2021/11/19 10:29:49;;;;;;;8.63;7.77;;;6.60;99.90;;;;;;5106642;28;20203;-80
2021/11/19 10:32:20;;;;;;;10.13;7.67;;;6.60;99.90;;;;;;5126462;28;20230;-80
2021/11/19 10:34:55;;;;;;;16.17;14.80;;;6.60;99.90;;;;;;5130452;28;20199;-80
2021/11/19 10:37:42;;;;;;;16.83;15.60;;;6.50;99.90;;;;;;5104710;28;20189;-80
2021/11/19 10:40:48;;;;;;;17.17;15.87;;;6.50;99.90;;;;;;5070039;28;20214;-80
2021/11/19 10:43:57;;;;;;;16.57;15.43;;;6.50;99.90;;;;;;5131836;28;20640;-80
2021/11/19 10:46:38;;;;;;;18.03;16.73;;;6.60;99.90;;;;;;5093081;28;20570;-80
2021/11/19 10:49:42;;;;;;;17.47;16.17;;;6.60;99.90;;;;;;5124794;28;20197;-80
2021/11/19 10:52:56;;;;;;;17.10;15.80;;;6.60;99.90;;;;;;5112738;28;20272;-80
2021/11/19 10:56:00;;;;;;;16.80;15.60;;;6.70;99.90;;;;;;5094269;28;20201;-80
2021/11/19 10:58:48;;;;;;;17.40;16.20;;;6.80;99.90;;;;;;5094989;28;20194;-80
2021/11/19 11:01:43;;;;;;;;;;;;;;;;;;;;;
2021/11/19 11:05:02;;;;;;;17.73;16.37;;;6.90;99.90;;;;;;5109136;28;20204;-79
2021/11/19 11:07:31;;;;;;;17.20;15.90;;;6.90;99.90;;;;;;5110234;28;20654;-80
2021/11/19 11:10:05;;;;;;;18.87;17.47;;;6.90;99.90;;;;;;5105177;27;20209;-80
2021/11/19 11:12:44;;;;;;;17.87;16.50;;;6.90;99.90;;;;;;5094428;28;20234;-80
2021/11/19 11:15:20;;;;;;;18.00;16.70;;;7.00;99.90;;;;;;5097557;28;20252;-80
2021/11/19 11:18:04;;;;;;;17.67;16.47;;;7.20;99.90;;;;;;5102683;28;20209;-80
2021/11/19 11:20:35;;;;;;;17.73;16.50;;;7.30;99.90;;;;;;5097923;27;20248;-79
2021/11/19 11:23:20;;;;;;;17.80;16.40;;;7.40;99.90;;;;;;5097444;28;20215;-80
2021/11/19 11:25:59;;;;;;;17.83;16.50;;;7.40;99.90;;;;;;5113895;27;20678;-79
2021/11/19 11:28:48;;;;;;;17.70;16.50;;;7.50;99.90;;;;;;5127949;27;20412;-80
2021/11/19 11:31:46;;;;;;;17.10;15.80;;;7.50;99.90;;;;;;5107335;27;20573;-79
2021/11/19 11:34:19;;;;;;;16.83;15.43;;;7.60;99.90;;;;;;5105321;27;20209;-80
2021/11/19 11:36:54;;;;;;;17.83;16.53;;;7.60;99.90;;;;;;5108499;28;20320;-80
2021/11/19 11:39:23;;;;;;;17.47;16.17;;;7.70;99.90;;;;;;5129259;27;20206;-80
2021/11/19 11:42:00;;;;;;;15.90;14.87;;;7.80;99.90;;;;;;5108911;27;20223;-80
2021/11/19 11:44:40;;;;;;;16.43;15.13;;;7.80;99.90;;;;;;5132022;27;20244;-80
2021/11/19 11:47:12;;;;;;;17.17;15.83;;;7.90;99.90;;;;;;5099719;28;20222;-79
2021/11/19 11:49:48;;;;;;;16.00;14.90;;;8.00;99.90;;;;;;5096852;28;20289;-80
2021/11/19 11:52:24;;;;;;;17.37;15.73;;;8.20;99.90;;;;;;5122503;27;20220;-80
2021/11/19 11:55:16;;;;;;;15.90;14.90;;;8.20;99.90;;;;;;5101624;28;20270;-80
2021/11/19 11:58:00;;;;;;;16.93;15.50;;;8.10;99.90;;;;;;5108733;27;20202;-80
2021/11/19 12:00:33;;;;;;;16.47;15.23;;;8.10;99.90;;;;;;5122084;27;20204;-80
2021/11/19 12:03:17;;;;;;;15.87;14.73;;;8.10;99.90;;;;;;5104803;28;20239;-79
2021/11/19 12:05:50;;;;;;;15.63;14.63;;;8.10;99.90;;;;;;5113990;27;20227;-80
2021/11/19 12:08:52;;;;;;;15.73;14.63;;;8.20;99.90;;;;;;5104312;28;20203;-80
2021/11/19 12:11:55;;;;;;;14.90;13.83;;;8.30;99.90;;;;;;5061481;27;20244;-79
2021/11/19 12:14:31;;;;;;;15.73;14.67;;;8.30;99.90;;;;;;5105203;27;20196;-80
2021/11/19 12:17:09;;;;;;;15.37;14.27;;;8.20;99.90;;;;;;5106022;28;20200;-80
2021/11/19 12:19:43;;;;;;;15.97;14.97;;;8.20;99.90;;;;;;5093815;27;20264;-80
2021/11/19 12:22:17;;;;;;;15.53;14.43;;;8.20;99.90;;;;;;5096937;28;20214;-80
2021/11/19 12:24:55;;;;;;;15.00;14.00;;;8.30;99.90;;;;;;5123585;27;20240;-80
2021/11/19 12:27:36;;;;;;;14.53;13.43;;;8.40;99.90;;;;;;5114379;27;20632;-80
2021/11/19 12:30:16;;;;;;;14.73;13.63;;;8.40;99.90;;;;;;5122724;27;20294;-80
2021/11/19 12:32:45;;;;;;;14.83;13.73;;;8.40;99.90;;;;;;5123099;27;20561;-81
2021/11/19 12:35:16;;;;;;;13.33;12.50;;;8.50;99.90;;;;;;5129902;27;20610;-80
2021/11/19 12:37:52;;;;;;;16.17;14.93;;;8.60;99.90;;;;;;5129766;27;20659;-80
2021/11/19 12:40:30;;;;;;;15.43;14.40;;;8.60;99.90;;;;;;5106352;27;20226;-79
2021/11/19 12:43:01;;;;;;;15.20;14.20;;;8.60;99.90;;;;;;5097935;28;20221;-80
2021/11/19 12:45:31;;;;;;;14.90;13.90;;;8.70;99.90;;;;;;5108552;27;20264;-80
2021/11/19 12:48:29;;;;;;;15.90;14.70;;;8.80;99.90;;;;;;5096106;28;20201;-80
2021/11/19 12:51:07;;;;;;;16.40;15.33;;;8.90;99.90;;;;;;5087750;28;20201;-80
2021/11/19 12:54:08;;;;;;;16.57;15.23;;;9.00;99.90;;;;;;5089230;28;20716;-80
2021/11/19 12:56:58;;;;;;;15.50;14.30;;;9.00;99.90;;;;;;5083771;28;20296;-79
2021/11/19 12:59:48;;;;;;;8.53;6.13;;;9.10;99.90;;;;;;5095143;28;20626;-80
2021/11/19 13:02:26;;;;;;;7.17;6.33;;;9.10;99.90;;;;;;5095539;27;20804;-80
2021/11/19 13:05:01;;;;;;;6.83;5.50;;;9.10;99.90;;;;;;5110294;27;20193;-80
2021/11/19 13:07:36;;;;;;;9.03;6.80;;;9.30;99.90;;;;;;5096379;27;20204;-80
2021/11/19 13:10:25;;;;;;;8.23;6.33;;;9.30;99.90;;;;;;5131657;27;20202;-80
2021/11/19 13:13:28;;;;;;;13.60;12.57;;;9.40;99.90;;;;;;5103982;28;20282;-80
2021/11/19 13:16:30;;;;;;;6.73;6.03;;;9.40;99.90;;;;;;5088180;28;20249;-80
2021/11/19 13:19:01;;;;;;;7.73;6.00;;;9.40;99.90;;;;;;5119873;27;20227;-79